Time;durP1;ratioP1;P1;durP2;ratioP2;P2;SDS_P1;SDS_P2;PMS_P1;PMS_P2;Temp;Humidity;BMP_temperature;BMP_pressure;BME280_temperature;BME280_humidity;BME280_pressure;Samples;Min_cycle;Max_cycle;Signal;HPM_P1;HPM_P2
2023/10/28 00:00:29;;;;;;;7.90;2.50;;;12.20;99.90;;;;;;5049793;28;20431;-86
2023/10/28 00:02:56;;;;;;;11.27;1.60;;;;;;;;;;5049164;28;20376;-86
2023/10/28 00:05:22;;;;;;;6.20;2.20;;;;;;;;;;5032829;28;20029;-86
2023/10/28 00:07:47;;;;;;;8.82;2.15;;;11.80;99.90;;;;;;5048950;28;20377;-86
2023/10/28 00:10:13;;;;;;;6.18;2.25;;;11.80;99.90;;;;;;5048884;28;20025;-88
2023/10/28 00:12:39;;;;;;;6.50;2.20;;;;;;;;;;5048883;28;20439;-88
2023/10/28 00:15:05;;;;;;;3.80;1.55;;;;;;;;;;5044158;28;20029;-88
2023/10/28 00:17:31;;;;;;;7.32;1.02;;;;;;;;;;5048552;28;20079;-85
2023/10/28 00:19:57;;;;;;;4.47;1.25;;;;;;;;;;5048374;28;20416;-88
2023/10/28 00:22:23;;;;;;;18.08;11.90;;;;;;;;;;5049028;28;20079;-86
2023/10/28 00:24:49;;;;;;;52.92;33.13;;;11.30;99.90;;;;;;5048344;28;20442;-85
2023/10/28 00:27:15;;;;;;;61.78;36.15;;;12.40;99.90;;;;;;5048937;28;20480;-87
2023/10/28 00:29:41;;;;;;;45.45;31.15;;;12.60;99.90;;;;;;5048931;28;20028;-87
2023/10/28 00:32:06;;;;;;;64.97;36.60;;;11.30;99.90;;;;;;5047452;28;20036;-87
2023/10/28 00:34:32;;;;;;;63.30;37.65;;;11.90;99.90;;;;;;5053021;28;20025;-86
2023/10/28 00:36:58;;;;;;;68.20;38.85;;;;;;;;;;5052923;28;20025;-86
2023/10/28 00:39:25;;;;;;;69.45;38.33;;;;;;;;;;5052705;28;20021;-86
2023/10/28 00:41:50;;;;;;;84.28;41.78;;;10.70;99.90;;;;;;5052624;28;20036;-88
2023/10/28 00:44:16;;;;;;;76.28;40.95;;;11.30;99.90;;;;;;5051654;28;20083;-86
2023/10/28 00:46:42;;;;;;;16.33;8.52;;;11.80;99.90;;;;;;5052770;28;20041;-88
2023/10/28 00:49:09;;;;;;;85.22;43.83;;;;;;;;;;5052012;28;20032;-86
2023/10/28 00:51:35;;;;;;;82.68;42.28;;;12.10;99.90;;;;;;5053575;28;20028;-87
2023/10/28 00:54:01;;;;;;;91.82;45.45;;;;;;;;;;5050298;28;20489;-86
2023/10/28 00:56:28;;;;;;;83.03;42.58;;;13.70;99.90;;;;;;5032803;28;20091;-88
2023/10/28 00:58:54;;;;;;;92.03;44.80;;;11.80;99.90;;;;;;5050373;28;20555;-88
2023/10/28 01:01:21;;;;;;;85.13;44.00;;;12.10;99.90;;;;;;5052726;28;20021;-86
2023/10/28 01:03:47;;;;;;;85.55;44.22;;;;;;;;;;5052283;28;20036;-85
2023/10/28 01:06:14;;;;;;;92.75;45.40;;;11.90;99.90;;;;;;5050830;28;20040;-87
2023/10/28 01:08:39;;;;;;;93.43;45.95;;;12.60;99.90;;;;;;5052394;28;20027;-82
2023/10/28 01:11:06;;;;;;;94.57;45.45;;;;;;;;;;5052308;28;20116;-85
2023/10/28 01:13:32;;;;;;;94.18;45.58;;;;;;;;;;5050135;28;20035;-87
2023/10/28 01:15:59;;;;;;;90.55;45.53;;;11.70;99.90;;;;;;5050516;28;20132;-85
2023/10/28 01:18:25;;;;;;;49.50;31.20;;;;;;;;;;5052215;28;20473;-85
2023/10/28 01:20:51;;;;;;;94.60;46.70;;;;;;;;;;5051733;28;20108;-87
2023/10/28 01:23:18;;;;;;;116.03;52.22;;;12.30;99.90;;;;;;5052176;28;20113;-87
2023/10/28 01:25:43;;;;;;;90.78;45.38;;;;;;;;;;5052161;28;20028;-87
2023/10/28 01:28:09;;;;;;;107.63;49.00;;;11.20;99.90;;;;;;5051915;28;20029;-86
2023/10/28 01:30:37;;;;;;;108.72;49.42;;;;;;;;;;5051462;28;20021;-88
2023/10/28 01:33:03;;;;;;;;;;;11.60;99.90;;;;;;5051604;28;20052;-86
2023/10/28 01:35:29;;;;;;;138.73;56.67;;;14.90;99.90;;;;;;5051957;28;19962;-87
2023/10/28 01:37:54;;;;;;;133.90;55.88;;;12.00;99.90;;;;;;5050379;28;20033;-87
2023/10/28 01:40:20;;;;;;;132.05;55.60;;;;;;;;;;5051904;28;20389;-85
2023/10/28 01:42:46;;;;;;;113.35;51.63;;;;;;;;;;5051680;28;20393;-84
2023/10/28 01:45:12;;;;;;;2.63;1.92;;;12.30;99.90;;;;;;5050086;28;20563;-82
2023/10/28 01:47:42;;;;;;;58.45;36.53;;;9.40;99.90;;;;;;5052645;28;20109;-87
2023/10/28 01:50:11;;;;;;;119.15;50.03;;;11.20;99.90;;;;;;5052322;28;20052;-88
2023/10/28 01:52:37;;;;;;;105.68;48.92;;;13.60;99.90;;;;;;5052578;28;20025;-85
2023/10/28 01:55:03;;;;;;;112.68;50.45;;;12.00;99.90;;;;;;5049250;28;20031;-87
2023/10/28 01:57:30;;;;;;;85.70;43.45;;;;;;;;;;5051248;28;20112;-86
2023/10/28 01:59:57;;;;;;;118.55;52.30;;;;;;;;;;5050996;28;20021;-87
2023/10/28 02:02:24;;;;;;;86.20;44.33;;;;;;;;;;5051367;28;20047;-85
2023/10/28 02:04:51;;;;;;;115.22;51.75;;;;;;;;;;5050944;28;20017;-87
2023/10/28 02:07:17;;;;;;;116.57;51.67;;;12.40;99.90;;;;;;5051484;28;20033;-86
2023/10/28 02:09:43;;;;;;;111.13;50.05;;;11.10;99.90;;;;;;5049966;28;20035;-87
2023/10/28 02:12:08;;;;;;;112.82;50.08;;;10.60;99.90;;;;;;5050906;28;20037;-85
2023/10/28 02:14:35;;;;;;;111.28;50.42;;;11.40;99.90;;;;;;5051397;28;20387;-87
2023/10/28 02:17:01;;;;;;;99.70;47.03;;;10.60;99.90;;;;;;5051169;28;20446;-85
2023/10/28 02:19:27;;;;;;;107.30;50.00;;;;;;;;;;5051163;28;20374;-88
2023/10/28 02:21:54;;;;;;;121.43;52.90;;;;;;;;;;5049649;28;20052;-86
2023/10/28 02:24:20;;;;;;;107.82;49.80;;;10.20;99.90;;;;;;5050976;28;20021;-87
2023/10/28 02:26:46;;;;;;;120.20;53.20;;;11.10;99.90;;;;;;5050205;28;20516;-85
2023/10/28 02:29:12;;;;;;;105.18;48.83;;;;;;;;;;5051273;28;20062;-83
2023/10/28 02:31:38;;;;;;;107.68;49.50;;;;;;;;;;5050238;28;20374;-83
2023/10/28 02:34:07;;;;;;;96.32;46.42;;;10.90;99.90;;;;;;5050893;28;20028;-85
2023/10/28 02:36:33;;;;;;;105.65;48.65;;;11.20;99.90;;;;;;5050867;28;20182;-86
2023/10/28 02:38:59;;;;;;;93.72;44.80;;;13.70;99.90;;;;;;5050532;28;20512;-86
2023/10/28 02:41:25;;;;;;;102.28;48.00;;;11.30;99.90;;;;;;5050272;28;20480;-86
2023/10/28 02:43:51;;;;;;;109.68;50.45;;;;;;;;;;5050741;28;20071;-88
2023/10/28 02:46:23;;;;;;;97.70;47.20;;;9.80;99.90;;;;;;5049516;28;20037;-86
2023/10/28 02:48:49;;;;;;;109.05;50.40;;;11.20;99.90;;;;;;5050324;28;20021;-87
2023/10/28 02:51:15;;;;;;;116.97;49.95;;;10.90;99.90;;;;;;5050517;28;20036;-85
2023/10/28 02:53:41;;;;;;;95.03;46.13;;;;;;;;;;5050167;28;20029;-86
2023/10/28 02:56:08;;;;;;;105.05;48.42;;;10.90;99.90;;;;;;5048147;28;20036;-86
2023/10/28 02:58:34;;;;;;;95.97;46.80;;;;;;;;;;5050268;28;20036;-87
2023/10/28 03:01:09;;;;;;;151.35;59.20;;;10.00;99.90;;;;;;5049859;28;20439;-87
2023/10/28 03:03:35;;;;;;;124.20;52.72;;;10.10;99.90;;;;;;5048516;28;20083;-86
2023/10/28 03:06:01;;;;;;;128.60;53.45;;;;;;;;;;5048683;28;20037;-86
2023/10/28 03:08:27;;;;;;;120.40;52.75;;;11.40;99.90;;;;;;5048875;28;20032;-87
2023/10/28 03:10:53;;;;;;;59.15;29.00;;;;;;;;;;5048150;28;20501;-87
2023/10/28 03:13:18;;;;;;;97.40;46.38;;;9.90;99.90;;;;;;5066957;28;20028;-86
2023/10/28 03:15:46;;;;;;;71.03;39.72;;;;;;;;;;5060713;28;20443;-83
2023/10/28 03:18:12;;;;;;;52.65;32.33;;;11.40;99.90;;;;;;5063116;28;20226;-87
2023/10/28 03:20:38;;;;;;;87.95;44.60;;;11.20;99.90;;;;;;5063580;28;20029;-86
2023/10/28 03:23:04;;;;;;;60.05;36.00;;;;;;;;;;5068385;28;20385;-86
2023/10/28 03:25:31;;;;;;;132.07;54.33;;;;;;;;;;5069672;28;20030;-87
2023/10/28 03:28:00;;;;;;;132.63;54.65;;;11.30;99.90;;;;;;5068006;28;20518;-86
2023/10/28 03:30:26;;;;;;;134.95;55.88;;;11.90;99.90;;;;;;5069537;28;20361;-87
2023/10/28 03:32:52;;;;;;;136.27;55.30;;;;;;;;;;5069665;28;20020;-88
2023/10/28 03:35:17;;;;;;;115.15;50.53;;;11.80;99.90;;;;;;5068621;28;20089;-88
2023/10/28 03:37:44;;;;;;;119.10;51.80;;;10.80;99.90;;;;;;5065988;28;20108;-89
2023/10/28 03:40:10;;;;;;;130.88;54.05;;;13.80;99.90;;;;;;5049526;28;20032;-88
2023/10/28 03:42:36;;;;;;;59.40;26.60;;;;;;;;;;5048008;28;20017;-87
2023/10/28 03:45:07;;;;;;;122.93;53.80;;;11.40;99.90;;;;;;5049504;28;20075;-88
2023/10/28 03:47:33;;;;;;;122.10;53.50;;;11.30;99.90;;;;;;5049813;28;20089;-88
2023/10/28 03:49:59;;;;;;;121.68;53.00;;;10.20;99.90;;;;;;5058201;28;20075;-88
2023/10/28 03:52:25;;;;;;;130.52;54.75;;;;;;;;;;5052708;28;20441;-89
2023/10/28 03:54:51;;;;;;;140.30;55.75;;;;;;;;;;5049054;28;20021;-87
2023/10/28 03:57:18;;;;;;;131.38;54.35;;;;;;;;;;5048078;28;20116;-86
2023/10/28 03:59:46;;;;;;;134.70;54.97;;;11.20;99.90;;;;;;5050156;28;20021;-83
2023/10/28 04:02:12;;;;;;;124.95;52.00;;;11.80;99.90;;;;;;5049834;28;20107;-87
2023/10/28 04:04:38;;;;;;;135.23;55.47;;;;;;;;;;5057101;28;20125;-86
2023/10/28 04:07:04;;;;;;;135.50;55.67;;;11.30;99.90;;;;;;5068985;28;20048;-84
2023/10/28 04:09:30;;;;;;;135.80;54.90;;;;;;;;;;5068857;28;20020;-83
2023/10/28 04:11:55;;;;;;;70.55;32.20;;;12.20;99.90;;;;;;5063061;28;20381;-88
2023/10/28 04:14:21;;;;;;;125.50;54.35;;;11.10;99.90;;;;;;5048935;28;20531;-88
2023/10/28 04:16:47;;;;;;;93.40;45.40;;;;;;;;;;5048944;28;20021;-83
2023/10/28 04:19:13;;;;;;;104.18;47.40;;;11.40;99.90;;;;;;5044612;28;20052;-88
2023/10/28 04:21:38;;;;;;;102.45;47.75;;;12.00;99.90;;;;;;5048552;28;20035;-82
2023/10/28 04:24:05;;;;;;;50.17;27.63;;;11.70;99.90;;;;;;5048838;28;20021;-85
2023/10/28 04:26:31;;;;;;;113.38;49.60;;;;;;;;;;5048179;28;20033;-83
2023/10/28 04:29:00;;;;;;;85.00;41.97;;;;;;;;;;5047075;28;20028;-85
2023/10/28 04:31:27;;;;;;;135.32;55.42;;;12.00;99.90;;;;;;5048553;28;20029;-87
2023/10/28 04:33:53;;;;;;;123.15;52.00;;;;;;;;;;5048582;28;20052;-83
2023/10/28 04:36:19;;;;;;;122.28;52.88;;;;;;;;;;5048122;28;20067;-82
2023/10/28 04:38:45;;;;;;;123.93;52.88;;;;;;;;;;5048001;28;20021;-82
2023/10/28 04:41:11;;;;;;;112.70;49.88;;;;;;;;;;5048515;28;20021;-82
2023/10/28 04:43:37;;;;;;;117.68;51.10;;;11.30;99.90;;;;;;5048431;28;20096;-82
2023/10/28 04:46:03;;;;;;;109.57;49.60;;;12.70;99.90;;;;;;5047359;28;20111;-81
2023/10/28 04:48:28;;;;;;;112.32;49.88;;;12.30;99.90;;;;;;5048632;28;20388;-82
2023/10/28 04:50:55;;;;;;;119.43;50.58;;;11.20;99.90;;;;;;5048701;28;20499;-82
2023/10/28 04:53:22;;;;;;;115.13;50.55;;;12.30;99.90;;;;;;5048530;28;20021;-86
2023/10/28 04:55:48;;;;;;;16.97;7.93;;;12.60;99.90;;;;;;5049280;28;20104;-89
2023/10/28 04:58:14;;;;;;;99.45;47.38;;;;;;;;;;5048596;28;20107;-82
2023/10/28 05:00:41;;;;;;;117.90;51.17;;;;;;;;;;5048596;28;20403;-84
2023/10/28 05:03:07;;;;;;;102.78;47.80;;;12.90;99.90;;;;;;5051427;28;20029;-85
2023/10/28 05:05:32;;;;;;;99.03;47.45;;;11.60;99.90;;;;;;5055048;28;20381;-81
2023/10/28 05:07:58;;;;;;;94.60;45.53;;;;;;;;;;5047166;28;20025;-82
2023/10/28 05:10:24;;;;;;;93.13;45.90;;;12.00;99.90;;;;;;5048516;28;20028;-82
2023/10/28 05:12:50;;;;;;;96.47;45.28;;;;;;;;;;5048684;28;20463;-82
2023/10/28 05:15:16;;;;;;;86.03;43.28;;;11.20;99.90;;;;;;5047974;28;20548;-82
2023/10/28 05:17:42;;;;;;;8.25;1.73;;;;;;;;;;5047835;28;20100;-83
2023/10/28 05:20:08;;;;;;;11.25;2.33;;;11.60;99.90;;;;;;5043939;28;20032;-82
2023/10/28 05:22:35;;;;;;;8.88;2.30;;;11.60;99.90;;;;;;5032149;28;20025;-88
2023/10/28 05:25:03;;;;;;;10.30;2.38;;;;;;;;;;5032347;28;20025;-88
2023/10/28 05:27:29;;;;;;;6.88;1.80;;;;;;;;;;5032276;28;20075;-89
2023/10/28 05:29:55;;;;;;;11.35;2.33;;;13.40;99.90;;;;;;5041322;28;20033;-88
2023/10/28 05:32:21;;;;;;;10.48;2.25;;;12.00;99.90;;;;;;5052939;28;20031;-83
2023/10/28 05:34:47;;;;;;;5.13;1.58;;;;;;;;;;5051747;28;20082;-84
2023/10/28 05:37:13;;;;;;;9.82;2.10;;;;;;;;;;5049845;28;20507;-85
2023/10/28 05:39:41;;;;;;;10.90;2.10;;;;;;;;;;5040621;28;20100;-86
2023/10/28 05:42:07;;;;;;;5.35;2.58;;;12.30;99.90;;;;;;5048169;28;20037;-84
2023/10/28 05:44:35;;;;;;;6.88;1.92;;;11.50;99.90;;;;;;5050778;28;20026;-89
2023/10/28 05:47:01;;;;;;;5.63;1.85;;;;;;;;;;5050246;28;20030;-83
2023/10/28 05:49:27;;;;;;;5.25;1.75;;;13.70;99.90;;;;;;5040344;28;20476;-88
2023/10/28 05:51:54;;;;;;;7.90;1.80;;;;;;;;;;5035364;28;20029;-81
2023/10/28 05:54:20;;;;;;;4.90;1.63;;;;;;;;;;5046565;28;20059;-88
2023/10/28 05:56:46;;;;;;;9.35;2.28;;;;;;;;;;5060197;28;20044;-85
2023/10/28 05:59:12;;;;;;;7.68;2.20;;;;;;;;;;5059841;28;20033;-86
2023/10/28 06:01:38;;;;;;;4.72;1.77;;;11.90;99.90;;;;;;5055089;28;20024;-84
2023/10/28 06:04:04;;;;;;;10.00;2.70;;;11.60;99.90;;;;;;5057704;28;20033;-85
2023/10/28 06:06:30;;;;;;;9.27;2.45;;;;;;;;;;5050831;28;20051;-88
2023/10/28 06:09:00;;;;;;;9.52;1.83;;;;;;;;;;5050536;28;20032;-82
2023/10/28 06:11:26;;;;;;;9.02;2.17;;;;;;;;;;5049710;28;20029;-88
2023/10/28 06:13:52;;;;;;;8.27;1.75;;;;;;;;;;5051479;28;20032;-83
2023/10/28 06:16:19;;;;;;;10.13;1.88;;;11.90;99.90;;;;;;5051308;28;20025;-88
2023/10/28 06:18:45;;;;;;;9.45;2.60;;;;;;;;;;5045558;28;20033;-86
2023/10/28 06:21:11;;;;;;;6.68;1.98;;;;;;;;;;5049120;28;20029;-84
2023/10/28 06:23:39;;;;;;;6.00;2.05;;;;;;;;;;5036576;28;20453;-86
2023/10/28 06:26:07;;;;;;;8.75;2.05;;;;;;;;;;5050519;28;20480;-83
2023/10/28 06:28:33;;;;;;;;;;;11.80;99.90;;;;;;5042241;28;20067;-84
2023/10/28 06:31:00;;;;;;;8.02;2.35;;;;;;;;;;5045670;28;19940;-85
2023/10/28 06:33:26;;;;;;;5.93;1.65;;;;;;;;;;5050184;28;20028;-86
2023/10/28 06:35:52;;;;;;;8.18;1.98;;;;;;;;;;5047046;28;20056;-84
2023/10/28 06:38:18;;;;;;;8.75;1.83;;;11.30;99.90;;;;;;5050085;28;20095;-86
2023/10/28 06:40:47;;;;;;;7.40;2.17;;;;;;;;;;5050485;28;20685;-87
2023/10/28 06:43:15;;;;;;;;;;;11.60;99.90;;;;;;5050250;28;20128;-87
2023/10/28 06:45:41;;;;;;;12.38;2.95;;;12.70;99.90;;;;;;5049695;28;19961;-86
2023/10/28 06:48:07;;;;;;;13.10;2.38;;;13.00;99.90;;;;;;5050270;28;20032;-84
2023/10/28 06:50:33;;;;;;;9.75;2.50;;;;;;;;;;5050465;28;20481;-84
2023/10/28 06:53:02;;;;;;;11.20;2.17;;;11.60;99.90;;;;;;5050351;28;20026;-84
2023/10/28 06:55:28;;;;;;;10.68;1.95;;;;;;;;;;5050000;28;20413;-85
2023/10/28 06:57:55;;;;;;;10.40;1.88;;;11.60;99.90;;;;;;5050818;28;20044;-83
2023/10/28 07:00:26;;;;;;;13.10;3.05;;;;;;;;;;5049728;28;20053;-84
2023/10/28 07:02:53;;;;;;;6.63;1.95;;;;;;;;;;5050924;28;20108;-85
2023/10/28 07:05:19;;;;;;;11.40;1.95;;;;;;;;;;5050376;28;20381;-86
2023/10/28 07:07:45;;;;;;;11.23;2.92;;;13.60;99.90;;;;;;5049619;28;20041;-83
2023/10/28 07:10:14;;;;;;;10.55;2.78;;;12.80;99.90;;;;;;5049774;28;20083;-85
2023/10/28 07:12:43;;;;;;;9.40;3.85;;;11.80;99.90;;;;;;5047541;28;20025;-82
2023/10/28 07:15:10;;;;;;;11.07;2.40;;;11.90;99.90;;;;;;5047821;28;20071;-84
2023/10/28 07:17:37;;;;;;;13.48;2.95;;;11.50;99.90;;;;;;5048697;28;20025;-85
2023/10/28 07:20:03;;;;;;;10.95;2.58;;;13.40;99.90;;;;;;5048104;28;20427;-85
2023/10/28 07:22:29;;;;;;;6.60;2.17;;;;;;;;;;5048659;28;20036;-85
2023/10/28 07:24:54;;;;;;;11.82;3.08;;;11.90;99.90;;;;;;5050482;28;20071;-83
2023/10/28 07:27:23;;;;;;;15.70;4.10;;;12.10;99.90;;;;;;5049630;28;20044;-85
2023/10/28 07:29:50;;;;;;;14.43;5.55;;;;;;;;;;5049933;28;20091;-93
2023/10/28 07:32:17;;;;;;;11.52;3.90;;;;;;;;;;5048731;28;20063;-85
2023/10/28 07:34:43;;;;;;;8.82;3.75;;;;;;;;;;5048928;28;20040;-85
2023/10/28 07:37:08;;;;;;;9.52;3.00;;;12.10;99.90;;;;;;5048782;28;20021;-86
2023/10/28 07:39:34;;;;;;;13.52;2.40;;;12.40;99.90;;;;;;5049648;28;20025;-84
2023/10/28 07:42:00;;;;;;;11.75;2.38;;;;;;;;;;5048977;28;20431;-86
2023/10/28 07:44:26;;;;;;;10.55;1.98;;;;;;;;;;5049156;28;20059;-83
2023/10/28 07:46:52;;;;;;;13.00;2.58;;;11.80;99.90;;;;;;5048046;28;20468;-87
2023/10/28 07:49:18;;;;;;;7.28;2.00;;;;;;;;;;5049481;28;20301;-87
2023/10/28 07:51:44;;;;;;;9.82;2.97;;;;;;;;;;5049517;28;20033;-83
2023/10/28 07:54:10;;;;;;;13.65;2.38;;;;;;;;;;5049412;28;20029;-87
2023/10/28 07:56:37;;;;;;;14.50;2.92;;;;;;;;;;5047683;28;20032;-83
2023/10/28 07:59:03;;;;;;;7.05;2.22;;;;;;;;;;5029216;28;20108;-87
2023/10/28 08:01:29;;;;;;;10.73;3.10;;;12.60;99.90;;;;;;5029465;28;20033;-83
2023/10/28 08:03:56;;;;;;;10.95;3.40;;;9.20;99.90;;;;;;5029974;28;20152;-83
2023/10/28 08:06:22;;;;;;;13.50;3.47;;;12.60;99.90;;;;;;5029275;28;20038;-84
2023/10/28 08:08:48;;;;;;;10.40;3.17;;;;;;;;;;5029262;28;20049;-86
2023/10/28 08:11:16;;;;;;;14.35;3.22;;;13.90;99.90;;;;;;5029232;28;20032;-85
2023/10/28 08:13:42;;;;;;;9.90;2.97;;;12.70;99.90;;;;;;5043121;28;20021;-86
2023/10/28 08:16:11;;;;;;;8.00;2.78;;;13.40;99.90;;;;;;5046774;28;20029;-84
2023/10/28 08:18:37;;;;;;;10.07;2.78;;;;;;;;;;5047719;28;20025;-86
2023/10/28 08:21:03;;;;;;;9.70;2.80;;;13.50;99.90;;;;;;5048896;28;20515;-84
2023/10/28 08:23:29;;;;;;;11.20;2.50;;;;;;;;;;5047878;28;20032;-82
2023/10/28 08:25:58;;;;;;;6.25;1.95;;;14.10;99.90;;;;;;5049861;28;20514;-86
2023/10/28 08:28:26;;;;;;;13.88;2.42;;;13.30;99.90;;;;;;5047524;28;20484;-87
2023/10/28 08:30:52;;;;;;;11.35;2.63;;;13.90;99.90;;;;;;5048873;28;20097;-85
2023/10/28 08:33:20;;;;;;;12.68;3.10;;;13.50;99.90;;;;;;5048930;28;20033;-84
2023/10/28 08:35:47;;;;;;;11.43;2.67;;;15.10;99.90;;;;;;5047609;28;20029;-82
2023/10/28 08:38:12;;;;;;;12.52;3.35;;;13.40;99.90;;;;;;5048089;28;20159;-84
2023/10/28 08:40:44;;;;;;;9.40;2.60;;;14.60;99.90;;;;;;5048825;28;20433;-85
2023/10/28 08:43:10;;;;;;;13.90;3.25;;;;;;;;;;5048828;28;20472;-84
2023/10/28 08:45:39;;;;;;;11.07;2.72;;;13.90;99.90;;;;;;5048743;28;20067;-83
2023/10/28 08:48:05;;;;;;;8.63;2.65;;;;;;;;;;5046676;28;20067;-87
2023/10/28 08:50:33;;;;;;;12.30;2.80;;;13.70;99.90;;;;;;5048868;28;20383;-83
2023/10/28 08:53:03;;;;;;;8.30;2.20;;;11.60;99.90;;;;;;5049430;28;20021;-85
2023/10/28 08:55:30;;;;;;;13.68;2.63;;;14.00;99.90;;;;;;5052943;28;20029;-83
2023/10/28 08:57:57;;;;;;;7.07;2.13;;;;;;;;;;5052608;28;20029;-87
2023/10/28 09:00:25;;;;;;;9.98;2.65;;;13.80;99.90;;;;;;5052614;28;20028;-87
2023/10/28 09:02:51;;;;;;;11.88;2.97;;;;;;;;;;5051709;28;20248;-86
2023/10/28 09:05:19;;;;;;;11.18;3.25;;;;;;;;;;5052436;28;20047;-87
2023/10/28 09:07:48;;;;;;;14.05;2.90;;;15.40;99.90;;;;;;5051228;28;20024;-87
2023/10/28 09:10:14;;;;;;;14.55;2.47;;;14.10;99.90;;;;;;5052192;28;20115;-84
2023/10/28 09:12:40;;;;;;;9.82;2.10;;;;;;;;;;5051135;28;20488;-85
2023/10/28 09:15:08;;;;;;;11.65;3.25;;;14.40;99.90;;;;;;5050964;28;20056;-85
2023/10/28 09:17:34;;;;;;;10.25;2.55;;;12.90;99.90;;;;;;5052375;28;20100;-85
2023/10/28 09:20:00;;;;;;;10.50;2.50;;;;;;;;;;5051877;28;20032;-88
2023/10/28 09:22:27;;;;;;;7.18;2.20;;;;;;;;;;5052155;28;20032;-86
2023/10/28 09:24:54;;;;;;;9.55;2.40;;;14.50;99.90;;;;;;5052054;28;20112;-87
2023/10/28 09:27:21;;;;;;;10.98;2.67;;;14.90;99.90;;;;;;5046566;28;20045;-82
2023/10/28 09:29:47;;;;;;;7.78;2.60;;;11.80;99.90;;;;;;5032145;28;20013;-87
2023/10/28 09:32:13;;;;;;;8.20;2.78;;;;;;;;;;5032093;28;20022;-84
2023/10/28 09:34:40;;;;;;;7.85;2.70;;;14.60;99.90;;;;;;5032011;28;20124;-85
2023/10/28 09:37:07;;;;;;;10.48;2.85;;;16.50;99.90;;;;;;5032032;28;20018;-87
2023/10/28 09:39:33;;;;;;;13.20;2.80;;;16.40;99.90;;;;;;5032776;28;20053;-86
2023/10/28 09:42:00;;;;;;;7.72;1.77;;;14.60;99.90;;;;;;5032621;28;20024;-84
2023/10/28 09:44:26;;;;;;;5.05;1.60;;;;;;;;;;5050092;28;20025;-84
2023/10/28 09:47:04;;;;;;;8.52;2.70;;;14.50;99.90;;;;;;5051591;28;20115;-86
2023/10/28 09:49:30;;;;;;;7.97;1.73;;;15.40;99.90;;;;;;5052636;28;20021;-84
2023/10/28 09:52:07;;;;;;;11.93;1.88;;;13.00;99.90;;;;;;5051554;28;20040;-84
2023/10/28 09:54:41;;;;;;;10.63;2.30;;;14.00;99.90;;;;;;5048902;28;20037;-83
2023/10/28 09:57:10;;;;;;;7.93;2.50;;;;;;;;;;5051575;28;20100;-87
2023/10/28 09:59:39;;;;;;;7.18;2.20;;;15.40;99.90;;;;;;5051407;28;20028;-85
2023/10/28 10:02:30;;;;;;;10.25;2.20;;;14.40;99.90;;;;;;5049480;28;20040;-83
2023/10/28 10:05:00;;;;;;;7.15;2.08;;;13.30;99.90;;;;;;5051044;28;20025;-85
2023/10/28 10:07:27;;;;;;;3.58;2.15;;;15.80;99.90;;;;;;5049926;28;20059;-87
2023/10/28 10:09:53;;;;;;;12.68;4.30;;;15.00;99.90;;;;;;5051373;28;20036;-85
2023/10/28 10:12:19;;;;;;;9.45;3.63;;;;;;;;;;5051284;28;20025;-86
2023/10/28 10:14:46;;;;;;;8.25;3.15;;;15.20;99.90;;;;;;5051341;28;20024;-83
2023/10/28 10:17:23;;;;;;;9.32;3.42;;;14.30;99.90;;;;;;5049873;28;20032;-87
2023/10/28 10:19:49;;;;;;;9.40;3.10;;;11.80;99.90;;;;;;5051112;28;20025;-86
2023/10/28 10:22:19;;;;;;;11.23;3.53;;;14.60;99.90;;;;;;5050935;28;20033;-84
2023/10/28 10:24:51;;;;;;;9.00;3.17;;;15.40;99.90;;;;;;5051125;28;20033;-87
2023/10/28 10:27:40;;;;;;;7.47;2.95;;;14.60;99.90;;;;;;5050837;28;20041;-87
2023/10/28 10:30:10;;;;;;;10.88;1.88;;;12.20;99.90;;;;;;5051756;28;20028;-86
2023/10/28 10:32:49;;;;;;;5.97;1.90;;;12.20;99.90;;;;;;5050561;28;20087;-85
2023/10/28 10:35:31;;;;;;;11.45;3.88;;;15.00;99.90;;;;;;5050796;28;20487;-84
2023/10/28 10:38:15;;;;;;;9.75;3.03;;;15.00;99.90;;;;;;5050670;28;20100;-84
2023/10/28 10:40:41;;;;;;;11.68;3.33;;;;;;;;;;5049482;28;20450;-85
2023/10/28 10:43:10;;;;;;;9.80;2.50;;;14.60;99.90;;;;;;5050919;28;20068;-83
2023/10/28 10:45:37;;;;;;;12.80;2.50;;;11.90;99.90;;;;;;5051511;28;20067;-85
2023/10/28 10:48:04;;;;;;;10.57;2.45;;;14.50;99.90;;;;;;5049864;28;20091;-87
2023/10/28 10:50:31;;;;;;;9.88;2.67;;;14.50;99.90;;;;;;5050389;28;20021;-85
2023/10/28 10:53:00;;;;;;;15.60;4.45;;;15.30;99.90;;;;;;5048456;28;20044;-83
2023/10/28 10:55:28;;;;;;;9.70;3.95;;;;;;;;;;5049085;28;20036;-86
2023/10/28 10:57:53;;;;;;;;;;;14.60;99.90;;;;;;5049508;28;20032;-88
2023/10/28 11:00:20;;;;;;;19.10;6.55;;;15.40;99.90;;;;;;5050540;28;19905;-86
2023/10/28 11:02:48;;;;;;;20.42;6.18;;;14.50;99.90;;;;;;5050314;28;20031;-84
2023/10/28 11:05:15;;;;;;;13.65;5.13;;;15.40;99.90;;;;;;5050068;28;20025;-83
2023/10/28 11:07:45;;;;;;;15.27;5.13;;;14.60;99.90;;;;;;5049051;28;20116;-82
2023/10/28 11:10:11;;;;;;;14.65;4.07;;;;;;;;;;5050215;28;20052;-83
2023/10/28 11:12:39;;;;;;;8.27;3.65;;;14.70;99.90;;;;;;5050923;28;20051;-83
2023/10/28 11:15:06;;;;;;;13.52;2.85;;;14.20;99.90;;;;;;5050858;28;20013;-83
2023/10/28 11:17:32;;;;;;;11.65;3.38;;;12.70;99.90;;;;;;5049003;28;20029;-83
2023/10/28 11:20:02;;;;;;;15.55;4.72;;;14.80;99.90;;;;;;5049856;28;20032;-83
2023/10/28 11:22:28;;;;;;;16.13;4.88;;;15.60;99.90;;;;;;5047861;28;20048;-87
2023/10/28 11:24:55;;;;;;;16.15;4.30;;;15.80;99.90;;;;;;5049088;28;20033;-83
2023/10/28 11:27:23;;;;;;;17.58;5.78;;;15.90;99.90;;;;;;5049928;28;20043;-83
2023/10/28 11:29:50;;;;;;;13.13;4.63;;;14.90;99.90;;;;;;5049832;28;20017;-83
2023/10/28 11:32:16;;;;;;;11.85;3.25;;;15.00;99.90;;;;;;5048067;28;20033;-83
2023/10/28 11:34:44;;;;;;;10.20;3.10;;;16.60;99.90;;;;;;5049675;28;20109;-85
2023/10/28 11:37:10;;;;;;;;;;;14.90;99.90;;;;;;5049575;28;20056;-83
2023/10/28 11:39:38;;;;;;;10.02;3.83;;;15.30;99.90;;;;;;5049207;28;19984;-86
2023/10/28 11:42:14;;;;;;;15.88;4.70;;;15.10;99.90;;;;;;5049627;28;20029;-86
2023/10/28 11:44:50;;;;;;;12.70;3.35;;;15.00;99.90;;;;;;5049761;28;20036;-83
2023/10/28 11:47:17;;;;;;;12.35;3.72;;;15.70;99.90;;;;;;5049447;28;20033;-87
2023/10/28 11:49:43;;;;;;;10.63;3.35;;;15.50;99.90;;;;;;5049467;28;20481;-84
2023/10/28 11:52:11;;;;;;;10.85;2.97;;;18.60;99.90;;;;;;5049252;28;20055;-88
2023/10/28 11:54:37;;;;;;;6.28;2.35;;;;;;;;;;5048949;28;20029;-88
2023/10/28 11:57:03;;;;;;;11.52;3.30;;;14.80;99.90;;;;;;5049317;28;20025;-87
2023/10/28 11:59:29;;;;;;;15.02;4.32;;;14.30;99.90;;;;;;5049294;28;20048;-86
2023/10/28 12:01:55;;;;;;;9.57;3.53;;;;;;;;;;5049221;28;20025;-84
2023/10/28 12:04:21;;;;;;;10.45;3.85;;;;;;;;;;5049195;28;20025;-87
2023/10/28 12:06:47;;;;;;;11.88;3.90;;;16.10;99.90;;;;;;5048283;28;20094;-87
2023/10/28 12:09:14;;;;;;;6.80;2.50;;;;;;;;;;5047662;28;20433;-83
2023/10/28 12:11:40;;;;;;;7.30;2.83;;;17.70;99.90;;;;;;5048586;28;20104;-85
2023/10/28 12:14:10;;;;;;;5.05;2.72;;;12.50;99.90;;;;;;5048090;28;20031;-86
2023/10/28 12:16:39;;;;;;;13.50;2.88;;;14.80;99.90;;;;;;5049183;28;20361;-85
2023/10/28 12:19:07;;;;;;;17.92;7.30;;;16.20;99.90;;;;;;5031494;28;20025;-86
2023/10/28 12:21:34;;;;;;;9.35;3.35;;;14.60;99.90;;;;;;5036465;28;20386;-89
2023/10/28 12:24:00;;;;;;;17.20;5.07;;;14.20;99.90;;;;;;5043173;28;20031;-89
2023/10/28 12:26:26;;;;;;;12.90;4.50;;;;;;;;;;5048243;28;20399;-87
2023/10/28 12:28:52;;;;;;;12.32;4.63;;;15.40;99.90;;;;;;5052765;28;20143;-88
2023/10/28 12:31:19;;;;;;;13.75;4.40;;;12.00;99.90;;;;;;5055101;28;20510;-84
2023/10/28 12:33:44;;;;;;;12.93;3.42;;;15.10;99.90;;;;;;5053789;28;20025;-83
2023/10/28 12:36:10;;;;;;;11.85;3.00;;;15.10;99.90;;;;;;5053758;28;20509;-85
2023/10/28 12:38:36;;;;;;;10.27;3.47;;;16.00;99.90;;;;;;5055445;28;20025;-87
2023/10/28 12:41:03;;;;;;;12.65;3.45;;;18.50;99.90;;;;;;5055341;28;20325;-88
2023/10/28 12:43:29;;;;;;;11.88;3.95;;;;;;;;;;5054172;28;20025;-85
2023/10/28 12:45:55;;;;;;;17.48;5.30;;;;;;;;;;5055412;28;20032;-84
2023/10/28 12:48:21;;;;;;;15.00;2.80;;;15.60;99.90;;;;;;5054656;28;20451;-85
2023/10/28 12:50:47;;;;;;;12.23;3.03;;;;;;;;;;5055434;28;20021;-85
2023/10/28 12:53:13;;;;;;;11.05;2.53;;;15.60;99.90;;;;;;5055831;28;20033;-83
2023/10/28 12:55:41;;;;;;;6.88;2.25;;;15.40;99.90;;;;;;5056135;28;20056;-87
2023/10/28 12:58:07;;;;;;;20.65;3.67;;;15.70;99.90;;;;;;5055316;28;20021;-87
2023/10/28 13:00:33;;;;;;;19.35;4.45;;;;;;;;;;5055450;28;20312;-89
2023/10/28 13:02:59;;;;;;;18.58;4.90;;;15.30;99.90;;;;;;5054218;28;20655;-88
2023/10/28 13:05:25;;;;;;;15.23;5.18;;;16.60;99.90;;;;;;5055499;28;20108;-87
2023/10/28 13:07:51;;;;;;;11.65;4.60;;;;;;;;;;5055254;28;20033;-85
2023/10/28 13:10:17;;;;;;;14.38;3.47;;;16.90;99.90;;;;;;5053580;28;20118;-88
2023/10/28 13:12:44;;;;;;;13.52;3.35;;;;;;;;;;5056340;28;20104;-84